AirNav   Pilot Hours Calculator
 
 420 users online  

3P3 Mott Municipal Airport
Mott, North Dakota, USA

GOING TO MOTT?


FAA INFORMATION EFFECTIVE 09 SEPTEMBER 2021

Location

FAA Identifier: 3P3
Lat/Long: 46-21-32.9830N 102-19-41.6790W
46-21.549717N 102-19.694650W
46.3591619,-102.3282442
(estimated)
Elevation: 2413.9 ft. / 735.8 m (surveyed)
Variation: 11E (1985)
From city: 1 mile S of MOTT, ND
Time zone: UTC -6 (UTC -7 during Standard Time)
Zip code: 58646

Airport Operations

Airport use: Open to the public
Activation date: 01/1947
Control tower: no
ARTCC: MINNEAPOLIS CENTER
FSS: GRAND FORKS FLIGHT SERVICE STATION
NOTAMs facility: GFK (NOTAM-D service available)
Attendance: UNATNDD
Wind indicator: lighted
Segmented circle: yes
Lights: ACTVT PAPI RWY 10 & 28; MIRL RWY 10/28 - CTAF.
Beacon: white-green (lighted land airport)
Operates sunset to sunrise.

Airport Communications

CTAF: 122.9

Nearby radio navigation aids

VOR radial/distance  VOR name  Freq  Var
LEMr327/(28.0)LEMMON VOR111.4013E
DIKr135/35.2DICKINSON VORTAC112.9014E

Airport Services

Fuel available: 100LL
100LL:SELF SVC FUEL AVBL 24 HRS WITH CREDIT CARD.
Parking: hangars and tiedowns
Airframe service: NONE
Powerplant service: NONE
Bottled oxygen: NONE
Bulk oxygen: NONE

Runway Information

Runway 10/28

Dimensions: 4001 x 60 ft. / 1220 x 18 m
Surface: asphalt/treated, in good condition
RWY SFC TREATED WITH SEALCOAT IN 2019.
Weight bearing capacity: 
Single wheel: 12.5
Runway edge lights: medium intensity
RUNWAY 10  RUNWAY 28
Latitude: 46-21.635683N46-21.463720N
Longitude: 102-20.153460W102-19.235872W
Elevation: 2410.3 ft.2410.6 ft.
Traffic pattern: leftleft
Runway heading: 095 magnetic, 106 true275 magnetic, 286 true
Markings: basic, in good conditionbasic, in good condition
Visual slope indicator: 2-light PAPI on left (3.00 degrees glide path)2-light PAPI on left (3.00 degrees glide path)
Touchdown point: yes, no lightsyes, no lights
Obstructions: 13 ft. road, 770 ft. from runway, 180 ft. right of centerline, 43:1 slope to clear15 ft. road, 600 ft. from runway, 160 ft. left and right of centerline, 26:1 slope to clear
+10 FT TREE 580 FT FM THLD 100 FT L OF EXTDD CNTRLN APCH RATIO 38:1; +24 FT PLINE MARKED WITH ORANGE BALLS 1280 FT FM THLD CNTRLN APCH RATIO 45:1.

Airport Ownership and Management from official FAA records

Ownership: Publicly-owned
Owner: MOTT AIRPORT AUTHORITY
406 MEADOW LANE
MOTT, ND 58646
Phone 701-260-3525
OWEN BLICKENSDERFER CHRMN APT AUTH 701-567-3861.
Manager: DEREK MAYER
406 MEADOW LANE
MOTT, ND 58646
Phone 701-824-2030
ADDL CTC DEREK MAYER 701-260-3525.

Airport Operational Statistics

Aircraft based on the field: 10
Single engine airplanes: 10
    
Aircraft operations: avg 35/week *
65% local general aviation
32% transient general aviation
3% air taxi
* for 12-month period ending 27 May 2020

Additional Remarks

+100 FT TWR-L ON FARMSTEAD 1800 FT R OF RWY 28 THR.
CFM WINTER CONDS CALL 701-260-2535 OR 701-824-2163.
DEER ON & INVOF ARPT.
FOR CD CTC MINNEAPOLIS ARTCC AT 651-463-5588.

Instrument Procedures

There are no published instrument procedures at 3P3.

Some nearby airports with instrument procedures:

KHEI - Hettinger/JB Lindquist Regional Airport (25 nm SW)
KLEM - Lemmon Municipal Airport (28 nm S)
KDIK - Dickinson - Theodore Roosevelt Regional Airport (33 nm NW)
D57 - Glen Ullin Regional Airport (33 nm NE)
KBWW - Bowman Regional Airport (42 nm W)
 
Loc | Ops | Rwys | IFR | FBO | Links
Com | Nav | Svcs | Stats | Notes

Bismarck Aero Center
AirBoss

 
Area around 3P3 (Mott Municipal Airport)
 
Road maps at: MapQuest Bing Google
 
Aerial photo
WARNING: Photo may not be current or correct
Aerial photo of 3P3 (Mott Municipal Airport)
Do you have a better or more recent aerial photo of Mott Municipal Airport that you would like to share? If so, please send us your photo.

 
Sectional chart

 
Airport distance calculator
Flying to Mott Municipal Airport? Find the distance to fly.

From to 3P3

Sunrise and sunset
Times for 23-Sep-2021
 Local
(UTC-6)
 Zulu
(UTC)
Morning civil twilight06:0912:09
Sunrise06:3912:39
Sunset18:4500:45
Evening civil twilight19:1501:15

Current date and time
Zulu (UTC)  23-Sep-2021 07:24:05
Local (UTC-6)  23-Sep-2021 01:24:05
 
METAR
KHEI 
25nm SW 
230653Z AUTO 00000KT 10SM CLR 11/01 A2992 RMK AO2 SLP120 T01060011 403000017
KDIK 
33nm NW 
230656Z AUTO 19010KT 10SM CLR 13/01 A2988 RMK AO2 SLP104 T01280011 402890067
KD57 
33nm NE 
230655Z AUTO 26004KT 10SM CLR 10/02 A2989 RMK AO2
KBWW 
42nm W 
230655Z AUTO 18013KT 10SM CLR 13/01 A2992 RMK AO2
TAF
KDIK 
33nm NW 
230527Z 2306/2406 20008KT P6SM SCT250 FM231500 34014G22KT P6SM SCT250 FM240000 35011KT P6SM BKN200
NOTAMs
Click for the latest NOTAMs
NOTAMs are issued by the DoD/FAA and will open in a separate window not controlled by AirNav.

 

 
 

FBO, Fuel Providers, and Aircraft Ground Support

  
 Business Name 
 
 Contact 
 
 Services / Description 
 
Fuel Prices
 
Comments
  
Mott Airport Authority 701-824-2983
no information available

If you are affiliated with Mott Airport Authority and would like to show here your services, contact info, web link, logo, and more, click here
100LL
SS $5.05 
 Updated 29-Jun-2021
 
   write
SS=Self service
Update Fuel Prices
 

Would you like to see your business listed on this page?

 If your business provides an interesting product or service to pilots, flight crews, aircraft, or users of the Mott Municipal Airport, you should consider listing it here.  To start the listing process, click on the button below
 
Add a business
 

Other Pages about Mott Municipal Airport

Update a link
 
Copyright © AirNav, LLC. All rights reserved. Privacy Policy  Contact